Time;durP1;ratioP1;P1;durP2;ratioP2;P2;SDS_P1;SDS_P2;PMS_P1;PMS_P2;Temp;Humidity;BMP_temperature;BMP_pressure;BME280_temperature;BME280_humidity;BME280_pressure;Samples;Min_cycle;Max_cycle;Signal;HPM_P1;HPM_P2
2023/04/06 00:01:58;;;;;;;16.60;14.20;;;;;;;8.07;97.95;99122.70;108544;1251;73212;-72
2023/04/06 00:04:26;;;;;;;16.50;14.50;;;;;;;8.07;97.69;99114.35;108901;1251;61543;-71
2023/04/06 00:06:54;;;;;;;17.10;12.90;;;;;;;7.99;97.79;99115.21;108767;1251;60511;-72
2023/04/06 00:09:21;;;;;;;16.40;12.90;;;;;;;7.98;98.03;99112.74;108326;1251;73302;-79
2023/04/06 00:11:48;;;;;;;15.80;12.80;;;;;;;8.02;97.98;99107.11;108077;1251;69153;-81
2023/04/06 00:14:17;;;;;;;16.40;13.10;;;;;;;8.05;98.08;99106.18;108430;1251;71013;-76
2023/04/06 00:16:43;;;;;;;16.10;12.90;;;;;;;8.02;98.22;99104.67;109531;1253;59259;-78
2023/04/06 00:19:10;;;;;;;16.40;12.40;;;;;;;8.00;98.32;99103.17;109441;1251;60115;-79
2023/04/06 00:21:37;;;;;;;13.90;12.00;;;;;;;8.04;97.97;99094.05;108653;1257;73886;-79
2023/04/06 00:24:04;;;;;;;14.20;12.40;;;;;;;8.06;97.77;99093.66;108626;1251;69256;-73
2023/04/06 00:26:36;;;;;;;14.50;11.70;;;;;;;8.00;98.13;99096.23;106551;1253;73557;-78
2023/04/06 00:29:03;;;;;;;12.70;11.10;;;;;;;7.99;98.55;99088.48;106250;1251;61252;-81
2023/04/06 00:31:30;;;;;;;15.20;13.30;;;;;;;8.03;98.29;99089.23;106118;1251;61589;-78
2023/04/06 00:33:57;;;;;;;16.80;13.50;;;;;;;7.99;98.58;99090.73;105838;1257;74178;-77
2023/04/06 00:36:26;;;;;;;16.80;13.00;;;;;;;7.96;98.55;99090.20;106331;1251;71613;-78
2023/04/06 00:38:53;;;;;;;16.90;13.00;;;;;;;8.00;98.54;99092.44;106180;1251;72667;-80
2023/04/06 00:41:20;;;;;;;14.90;12.80;;;;;;;8.02;98.67;99085.85;106163;1256;62242;-78
2023/04/06 00:43:47;;;;;;;18.20;13.90;;;;;;;7.98;99.45;99079.58;106206;1254;60722;-80
2023/04/06 00:46:14;;;;;;;15.10;11.90;;;;;;;7.99;99.33;99080.55;106139;1251;74827;-78
2023/04/06 00:48:41;;;;;;;16.00;12.10;;;;;;;8.03;99.14;99077.91;106257;1251;70416;-81
2023/04/06 00:51:08;;;;;;;15.40;12.10;;;;;;;8.03;99.44;99080.77;106373;1256;73041;-78
2023/04/06 00:53:35;;;;;;;13.00;11.50;;;;;;;8.02;99.71;99075.37;107087;1257;61886;-78
2023/04/06 00:56:02;;;;;;;17.80;13.80;;;;;;;8.07;99.16;99077.52;106892;1251;61511;-78
2023/04/06 00:58:38;;;;;;;19.10;15.40;;;;;;;8.03;99.37;99078.97;106790;1256;74218;-79
2023/04/06 01:01:07;;;;;;;15.80;13.40;;;;;;;8.02;99.13;99079.27;106395;1258;70183;-79
2023/04/06 01:03:36;;;;;;;20.10;17.40;;;;;;;8.07;99.08;99080.16;106513;1251;73824;-80
2023/04/06 01:06:05;;;;;;;19.80;17.70;;;;;;;8.04;99.19;99078.74;106436;1257;60885;-78
2023/04/06 01:08:36;;;;;;;23.10;20.70;;;;;;;8.00;99.32;99076.36;106650;1257;60597;-77
2023/04/06 01:11:17;;;;;;;21.70;19.40;;;;;;;8.03;99.18;99072.98;106229;1251;73879;-77
2023/04/06 01:13:44;;;;;;;21.50;17.30;;;;;;;8.05;99.36;99066.98;106162;1256;68754;-78
2023/04/06 01:16:20;;;;;;;36.00;28.80;;;;;;;7.99;99.63;99068.13;106082;1254;73488;-78
2023/04/06 01:19:11;;;;;;;24.70;21.90;;;;;;;8.01;99.54;99066.54;105957;1251;62387;-80
2023/04/06 01:21:42;;;;;;;16.90;15.20;;;;;;;8.05;99.40;99061.64;106273;1251;60824;-79
2023/04/06 01:24:22;;;;;;;20.20;17.50;;;;;;;8.02;99.58;99063.10;106013;1256;73918;-79
2023/04/06 01:27:15;;;;;;;19.00;15.90;;;;;;;7.96;99.92;99061.02;105720;1251;71316;-73
2023/04/06 01:30:01;;;;;;;21.00;16.10;;;;;;;8.05;99.73;99061.86;106108;1257;72190;-79
2023/04/06 01:32:49;;;;;;;21.10;17.20;;;;;;;8.03;99.71;99057.81;106309;1251;61263;-77
2023/04/06 01:35:26;;;;;;;16.60;14.30;;;;;;;7.98;99.82;99061.02;106461;1254;60429;-79
2023/04/06 01:38:03;;;;;;;21.10;17.00;;;;;;;8.00;99.50;99058.75;106609;1254;73305;-79
2023/04/06 01:40:33;;;;;;;24.50;20.20;;;;;;;8.01;99.61;99057.75;106596;1251;71561;-78
2023/04/06 01:43:00;;;;;;;32.40;25.80;;;;;;;7.98;99.71;99060.36;106275;1251;72435;-80
2023/04/06 01:45:32;;;;;;;26.40;21.50;;;;;;;7.97;99.95;99064.46;106172;1251;62034;-80
2023/04/06 01:48:04;;;;;;;29.50;26.10;;;;;;;8.04;99.67;99062.87;106129;1251;60746;-77
2023/04/06 01:50:31;;;;;;;32.70;29.20;;;;;;;8.03;99.86;99061.39;106188;1251;73831;-79
2023/04/06 01:52:58;;;;;;;39.10;34.90;;;;;;;8.00;99.89;99061.69;106376;1254;71402;-80
2023/04/06 01:55:26;;;;;;;70.40;62.60;;;;;;;8.05;99.95;99059.79;106831;1253;70347;-79
2023/04/06 01:58:11;;;;;;;51.30;45.90;;;;;;;8.07;99.57;99055.83;107030;1254;60543;-76
2023/04/06 02:00:38;;;;;;;30.30;26.30;;;;;;;8.02;99.90;99052.50;106234;1251;61321;-79
2023/04/06 02:03:06;;;;;;;23.00;20.60;;;;;;;8.00;100.00;99050.74;106495;1254;74600;-76
2023/04/06 02:05:37;;;;;;;20.30;18.20;;;;;;;8.07;99.99;99050.52;106449;1251;71533;-78
2023/04/06 02:08:15;;;;;;;20.70;18.10;;;;;;;8.10;99.93;99048.51;106506;1256;73652;-78
2023/04/06 02:10:42;;;;;;;22.90;18.50;;;;;;;8.04;99.93;99046.04;106278;1253;63112;-77
2023/04/06 02:13:14;;;;;;;17.90;15.70;;;;;;;8.07;99.82;99044.52;106191;1254;60482;-79
2023/04/06 02:15:43;;;;;;;17.90;15.50;;;;;;;8.10;99.73;99046.33;106400;1256;73813;-76
2023/04/06 02:18:10;;;;;;;20.70;17.00;;;;;;;8.07;100.00;99044.90;106437;1253;71794;-79
2023/04/06 02:20:37;;;;;;;22.10;19.80;;;;;;;8.09;100.00;99047.15;106614;1251;73605;-81
2023/04/06 02:23:05;;;;;;;20.40;18.30;;;;;;;8.17;99.96;99049.52;107963;1251;61317;-79
2023/04/06 02:25:32;;;;;;;23.10;17.60;;;;;;;8.16;100.00;99047.06;107544;1251;60425;-79
2023/04/06 02:27:59;;;;;;;21.20;18.30;;;;;;;8.16;100.00;99045.39;106184;1257;75069;-80
2023/04/06 02:30:32;;;;;;;18.90;17.00;;;;;;;8.24;100.00;99050.83;106222;1254;71367;-79
2023/04/06 02:33:00;;;;;;;29.00;21.40;;;;;;;8.28;100.00;99046.63;106086;1254;73877;-80
2023/04/06 02:35:29;;;;;;;27.40;24.60;;;;;;;8.24;100.00;99043.41;106368;1251;60465;-82
2023/04/06 02:37:57;;;;;;;22.90;20.50;;;;;;;8.23;100.00;99035.70;106951;1257;61483;-77
2023/04/06 02:40:24;;;;;;;26.60;21.20;;;;;;;8.28;99.95;99034.95;107069;1254;73831;-77
2023/04/06 02:42:51;;;;;;;24.60;21.20;;;;;;;8.32;100.00;99037.54;106095;1251;71221;-80
2023/04/06 02:45:20;;;;;;;30.80;26.50;;;;;;;8.31;100.00;99039.21;106131;1254;73908;-78
2023/04/06 02:47:48;;;;;;;31.20;27.60;;;;;;;8.31;100.00;99038.05;106079;1257;63644;-76
2023/04/06 02:50:16;;;;;;;23.50;20.80;;;;;;;8.34;100.00;99033.58;106174;1256;60701;-79
2023/04/06 02:52:49;;;;;;;23.80;21.30;;;;;;;8.33;100.00;99036.80;106213;1251;72690;-79
2023/04/06 02:55:17;;;;;;;24.60;21.40;;;;;;;8.33;100.00;99039.38;106542;1251;71588;-78
2023/04/06 02:57:44;;;;;;;23.70;21.00;;;;;;;8.39;100.00;99043.52;106797;1251;72750;-77
2023/04/06 03:00:12;;;;;;;22.20;19.80;;;;;;;8.35;100.00;99040.00;106419;1254;61413;-79
2023/04/06 03:02:41;;;;;;;21.50;19.20;;;;;;;8.36;100.00;99042.27;106546;1251;60447;-77
2023/04/06 03:05:11;;;;;;;22.10;17.50;;;;;;;8.40;100.00;99041.23;106942;1251;75089;-81
2023/04/06 03:07:41;;;;;;;25.50;22.00;;;;;;;8.38;100.00;99038.60;107848;1254;70161;-77
2023/04/06 03:10:14;;;;;;;32.90;29.50;;;;;;;8.40;100.00;99036.70;108125;1254;70823;-80
2023/04/06 03:12:46;;;;;;;30.20;26.50;;;;;;;8.44;100.00;99035.33;108278;1254;60508;-78
2023/04/06 03:15:23;;;;;;;24.80;22.10;;;;;;;8.47;100.00;99033.30;108286;1252;61090;-81
2023/04/06 03:17:55;;;;;;;28.00;25.10;;;;;;;8.52;100.00;99034.20;106991;1256;73710;-80
2023/04/06 03:20:42;;;;;;;25.80;23.20;;;;;;;8.51;100.00;99034.20;107023;1251;68459;-80
2023/04/06 03:23:15;;;;;;;25.40;22.70;;;;;;;8.57;100.00;99038.23;106495;1251;73348;-80
2023/04/06 03:25:43;;;;;;;22.50;20.20;;;;;;;8.63;100.00;99037.64;106404;1251;61465;-76
2023/04/06 03:28:13;;;;;;;19.50;17.40;;;;;;;8.65;100.00;99039.38;106393;1256;61556;-81
2023/04/06 03:30:47;;;;;;;23.90;18.20;;;;;;;8.64;100.00;99040.55;106426;1254;74072;-80
2023/04/06 03:33:15;;;;;;;23.60;21.20;;;;;;;8.67;100.00;99038.93;106203;1251;71324;-80
2023/04/06 03:35:49;;;;;;;20.50;18.30;;;;;;;8.70;100.00;99039.38;106052;1251;72052;-80
2023/04/06 03:38:20;;;;;;;20.00;17.70;;;;;;;8.70;100.00;99040.21;106261;1251;60415;-82
2023/04/06 03:40:47;;;;;;;17.00;14.50;;;;;;;8.71;100.00;99040.50;106275;1251;60394;-80
2023/04/06 03:43:14;;;;;;;18.00;14.80;;;;;;;8.73;100.00;99041.79;106079;1254;73899;-81
2023/04/06 03:45:41;;;;;;;17.90;13.60;;;;;;;8.72;100.00;99035.56;106312;1251;71409;-78
2023/04/06 03:48:08;;;;;;;16.10;14.20;;;;;;;8.75;100.00;99038.60;106419;1251;73597;-78
2023/04/06 03:50:37;;;;;;;15.20;13.50;;;;;;;8.77;100.00;99033.63;106482;1253;61365;-81
2023/04/06 03:53:05;;;;;;;19.10;13.40;;;;;;;8.78;100.00;99038.95;106516;1254;60517;-79
2023/04/06 03:55:36;;;;;;;17.40;15.00;;;;;;;8.81;100.00;99039.29;106331;1251;71807;-81
2023/04/06 03:58:03;;;;;;;17.80;15.90;;;;;;;8.87;100.00;99038.51;107113;1254;70238;-80
2023/04/06 04:00:34;;;;;;;18.40;15.50;;;;;;;8.90;100.00;99045.05;107052;1251;71954;-79
2023/04/06 04:03:03;;;;;;;19.90;15.90;;;;;;;8.94;100.00;99045.72;106281;1254;60537;-78
2023/04/06 04:05:30;;;;;;;20.30;15.00;;;;;;;8.95;100.00;99045.42;106092;1252;61140;-77
2023/04/06 04:08:03;;;;;;;21.60;14.90;;;;;;;8.94;100.00;99043.76;106157;1257;74581;-77
2023/04/06 04:10:33;;;;;;;20.20;16.20;;;;;;;8.98;100.00;99041.86;107457;1254;71510;-78
2023/04/06 04:13:00;;;;;;;24.50;20.80;;;;;;;9.01;100.00;99041.17;106221;1254;73838;-79
2023/04/06 04:15:29;;;;;;;23.40;20.60;;;;;;;9.01;100.00;99042.69;106239;1251;60532;-80
2023/04/06 04:18:00;;;;;;;22.00;19.80;;;;;;;9.04;100.00;99051.55;106173;1254;60456;-81
2023/04/06 04:20:28;;;;;;;24.70;22.10;;;;;;;9.05;100.00;99051.61;107576;1253;73375;-81
2023/04/06 04:22:57;;;;;;;27.90;24.40;;;;;;;9.06;99.97;99050.45;107458;1257;71795;-79
2023/04/06 04:25:24;;;;;;;33.10;29.60;;;;;;;9.05;100.00;99048.27;106771;1251;73451;-80
2023/04/06 04:27:51;;;;;;;32.10;28.60;;;;;;;9.04;100.00;99050.66;106382;1253;62698;-79
2023/04/06 04:30:24;;;;;;;26.90;22.20;;;;;;;9.07;99.92;99051.44;106313;1254;60373;-79
2023/04/06 04:32:51;;;;;;;22.10;19.00;;;;;;;9.07;99.82;99052.26;106439;1251;74136;-79
2023/04/06 04:35:20;;;;;;;20.20;17.90;;;;;;;9.05;99.83;99055.19;106257;1251;70690;-82
2023/04/06 04:37:48;;;;;;;27.50;18.90;;;;;;;9.07;99.88;99054.54;106761;1251;73947;-79
2023/04/06 04:40:16;;;;;;;27.70;22.30;;;;;;;9.09;99.67;99054.21;106763;1251;60491;-80
2023/04/06 04:42:53;;;;;;;24.60;21.80;;;;;;;9.09;99.72;99051.88;107256;1253;60515;-80
2023/04/06 04:45:32;;;;;;;39.90;35.90;;;;;;;9.14;99.80;99050.80;106328;1253;73907;-80
2023/04/06 04:48:05;;;;;;;46.50;42.10;;;;;;;9.18;99.66;99056.20;106110;1251;68885;-80
2023/04/06 04:50:40;;;;;;;48.60;43.90;;;;;;;9.20;99.29;99062.86;105999;1254;73222;-79
2023/04/06 04:53:07;;;;;;;36.30;32.60;;;;;;;9.23;99.35;99062.09;108098;1251;61322;-78
2023/04/06 04:55:34;;;;;;;22.00;19.10;;;;;;;9.24;99.13;99064.93;108663;1253;60087;-78
2023/04/06 04:58:02;;;;;;;22.30;19.90;;;;;;;9.29;99.06;99067.86;109128;1251;71972;-80
2023/04/06 05:00:44;;;;;;;23.30;19.40;;;;;;;9.33;98.96;99067.31;109075;1253;70580;-77
2023/04/06 05:03:18;;;;;;;22.00;17.70;;;;;;;9.37;98.60;99069.48;107084;1251;72884;-78
2023/04/06 05:05:49;;;;;;;23.00;16.80;;;;;;;9.42;98.74;99071.20;106292;1257;60513;-81
2023/04/06 05:08:16;;;;;;;21.10;15.40;;;;;;;9.48;98.91;99073.66;106334;1251;60440;-79
2023/04/06 05:10:56;;;;;;;22.60;16.20;;;;;;;9.52;98.91;99072.47;106289;1257;73689;-77
2023/04/06 05:13:26;;;;;;;22.70;17.10;;;;;;;9.53;98.37;99068.91;106455;1251;69533;-76
2023/04/06 05:15:53;;;;;;;21.90;17.00;;;;;;;9.57;97.98;99065.78;106293;1253;72686;-79
2023/04/06 05:18:24;;;;;;;19.60;16.20;;;;;;;9.58;97.92;99057.39;106372;1253;60761;-80
2023/04/06 05:20:51;;;;;;;22.00;15.50;;;;;;;9.59;97.82;99062.80;106536;1253;60506;-79
2023/04/06 05:23:19;;;;;;;18.40;15.70;;;;;;;9.58;97.66;99072.27;106752;1251;74239;-80
2023/04/06 05:25:48;;;;;;;19.70;17.10;;;;;;;9.58;97.72;99078.58;106938;1253;69185;-81
2023/04/06 05:28:19;;;;;;;19.20;16.90;;;;;;;9.60;97.89;99076.08;107367;1251;72574;-81
2023/04/06 05:30:47;;;;;;;21.30;17.70;;;;;;;9.63;97.92;99069.14;107245;1251;61774;-79
2023/04/06 05:33:15;;;;;;;23.90;19.40;;;;;;;9.70;97.84;99071.55;107718;1251;60411;-83
2023/04/06 05:36:03;;;;;;;35.70;31.60;;;;;;;9.72;97.40;99075.73;107492;1250;74799;-79
2023/04/06 05:38:30;;;;;;;33.30;29.80;;;;;;;9.76;97.85;99071.73;107305;1254;188884;-76
2023/04/06 05:43:20;;;;;;;22.00;17.90;;;;;;;9.83;97.38;99066.20;104227;1288;601882;-77
2023/04/06 05:45:52;;;;;;;20.10;18.00;;;;;;;9.81;97.73;99073.08;105601;1263;60141;-79
2023/04/06 05:48:20;;;;;;;17.90;16.00;;;;;;;9.85;97.84;99072.30;105564;1263;60892;-80
2023/04/06 05:50:50;;;;;;;16.30;14.20;;;;;;;9.88;97.21;99068.61;105733;1263;72884;-77
2023/04/06 05:53:20;;;;;;;18.20;14.90;;;;;;;9.90;97.09;99072.11;105348;1262;70275;-78
2023/04/06 05:55:52;;;;;;;19.50;15.40;;;;;;;9.90;97.31;99073.27;105442;1260;221854;-77
2023/04/06 05:58:21;;;;;;;17.60;13.90;;;;;;;9.94;97.29;99073.59;105569;1260;61360;-79
2023/04/06 06:00:50;;;;;;;23.10;16.40;;;;;;;9.97;97.31;99071.93;105851;1261;61319;-79
2023/04/06 06:03:29;;;;;;;18.60;15.20;;;;;;;10.00;97.27;99074.06;106099;1261;72018;-79
2023/04/06 06:06:04;;;;;;;18.20;14.90;;;;;;;10.07;97.29;99075.44;106476;1254;69154;-81
2023/04/06 06:09:00;;;;;;;18.60;14.40;;;;;;;10.15;97.38;99078.20;106202;1257;73181;-82
2023/04/06 06:11:32;;;;;;;19.00;15.20;;;;;;;10.18;96.64;99072.66;106300;1257;60452;-79
2023/04/06 06:14:00;;;;;;;23.00;18.10;;;;;;;10.21;96.24;99076.48;105892;1254;59718;-78
2023/04/06 06:16:28;;;;;;;24.60;20.10;;;;;;;10.24;96.23;99084.34;106522;1258;74059;-81
2023/04/06 06:18:55;;;;;;;32.10;25.30;;;;;;;10.28;96.48;99084.77;106749;1254;70389;-83
2023/04/06 06:21:23;;;;;;;35.50;29.70;;;;;;;10.34;96.03;99084.07;106433;1254;72618;-82
2023/04/06 06:23:50;;;;;;;40.30;35.40;;;;;;;10.38;95.61;99082.04;106276;1254;59638;-81
2023/04/06 06:26:19;;;;;;;40.10;35.80;;;;;;;10.45;96.39;99079.11;105782;1256;61595;-74
2023/04/06 06:28:46;;;;;;;29.60;26.40;;;;;;;10.52;95.93;99074.22;105661;1257;74016;-74
2023/04/06 06:31:14;;;;;;;30.30;25.60;;;;;;;10.56;95.59;99068.53;105760;1257;69703;-75
2023/04/06 06:33:43;;;;;;;29.10;26.10;;;;;;;10.59;95.17;99075.09;105885;1259;73626;-77
2023/04/06 06:36:10;;;;;;;26.40;22.90;;;;;;;10.62;95.83;99078.64;105646;1260;60125;-79
2023/04/06 06:38:39;;;;;;;26.10;23.20;;;;;;;10.65;95.58;99072.56;105602;1260;61306;-75
2023/04/06 06:41:11;;;;;;;21.20;18.90;;;;;;;10.71;95.14;99072.95;105625;1254;74052;-76
2023/04/06 06:43:38;;;;;;;21.00;18.70;;;;;;;10.77;95.61;99076.09;107798;1255;70341;-77
2023/04/06 06:46:09;;;;;;;23.20;18.70;;;;;;;10.83;95.76;99072.04;105905;1255;74014;-76
2023/04/06 06:48:38;;;;;;;23.20;16.90;;;;;;;10.92;95.35;99073.81;106032;1259;61074;-78
2023/04/06 06:51:05;;;;;;;17.00;13.10;;;;;;;11.00;94.98;99076.38;106011;1256;60751;-77
2023/04/06 06:53:34;;;;;;;14.70;10.80;;;;;;;11.04;94.27;99074.29;106069;1253;72426;-75
2023/04/06 06:56:00;;;;;;;16.70;12.70;;;;;;;11.09;94.25;99077.77;105781;1253;71022;-76
2023/04/06 06:58:31;;;;;;;14.90;12.10;;;;;;;11.11;93.77;99083.65;106043;1253;72060;-76
2023/04/06 07:00:59;;;;;;;11.80;10.40;;;;;;;11.16;93.05;99081.50;106141;1257;59614;-78
2023/04/06 07:03:27;;;;;;;14.40;10.40;;;;;;;11.20;92.62;99079.01;105908;1253;61478;-76
2023/04/06 07:05:55;;;;;;;13.10;10.20;;;;;;;11.27;92.60;99077.15;105967;1253;74446;-73
2023/04/06 07:08:23;;;;;;;12.00;10.30;;;;;;;11.39;92.79;99077.80;105914;1253;71371;-77
2023/04/06 07:10:52;;;;;;;13.10;10.20;;;;;;;11.51;92.39;99087.33;105822;1261;73632;-76
2023/04/06 07:13:23;;;;;;;13.00;10.40;;;;;;;11.58;91.50;99086.78;106175;1252;63059;-76
2023/04/06 07:15:58;;;;;;;14.10;11.10;;;;;;;11.60;91.13;99084.91;106235;1256;59996;-75
2023/04/06 07:18:25;;;;;;;16.00;10.50;;;;;;;11.66;91.14;99081.90;105969;1259;73346;-77
2023/04/06 07:20:52;;;;;;;15.10;10.30;;;;;;;11.71;90.99;99081.98;105960;1259;70669;-78
2023/04/06 07:23:33;;;;;;;15.80;11.00;;;;;;;11.73;90.62;99077.98;106058;1253;73133;-78
2023/04/06 07:26:09;;;;;;;14.90;11.20;;;;;;;11.75;90.19;99076.17;105883;1253;60327;-76
2023/04/06 07:28:37;;;;;;;12.70;9.90;;;;;;;11.77;90.05;99077.12;105918;1253;59980;-76
2023/04/06 07:31:04;;;;;;;15.10;9.60;;;;;;;11.75;89.62;99082.64;106111;1253;73984;-78
2023/04/06 07:33:39;;;;;;;13.70;8.90;;;;;;;11.75;89.46;99081.16;105985;1257;69461;-79
2023/04/06 07:36:06;;;;;;;13.50;10.10;;;;;;;11.73;89.41;99082.74;105930;1257;72969;-77
2023/04/06 07:38:34;;;;;;;14.10;9.40;;;;;;;11.74;89.61;99083.40;105914;1252;60337;-77
2023/04/06 07:41:03;;;;;;;16.60;11.10;;;;;;;11.78;89.99;99080.61;106150;1254;60541;-78
2023/04/06 07:43:31;;;;;;;13.60;9.90;;;;;;;11.85;89.98;99080.27;105838;1256;74080;-79
2023/04/06 07:46:00;;;;;;;17.70;9.30;;;;;;;11.92;89.51;99082.43;106199;1256;68577;-77
2023/04/06 07:48:27;;;;;;;16.30;11.10;;;;;;;11.94;89.37;99085.73;106192;1253;73607;-79
2023/04/06 07:51:04;;;;;;;14.90;10.20;;;;;;;11.95;89.45;99084.32;106073;1253;61443;-78
2023/04/06 07:53:31;;;;;;;17.50;11.70;;;;;;;11.98;89.06;99083.68;106090;1254;59718;-78
2023/04/06 07:55:59;;;;;;;14.20;10.80;;;;;;;12.04;89.54;99088.55;105924;1253;74421;-76
2023/04/06 07:58:26;;;;;;;14.30;10.00;;;;;;;12.09;89.21;99088.05;106101;1253;69912;-79
2023/04/06 08:00:57;;;;;;;14.20;10.60;;;;;;;12.11;89.03;99089.66;106185;1256;71625;-77
2023/04/06 08:03:26;;;;;;;18.00;10.20;;;;;;;12.13;88.99;99090.77;106182;1252;60301;-78
2023/04/06 08:05:55;;;;;;;14.20;10.40;;;;;;;12.16;88.70;99097.85;105895;1253;59534;-79
2023/04/06 08:08:22;;;;;;;14.80;10.60;;;;;;;12.17;88.29;99091.27;105984;1257;73123;-76
2023/04/06 08:10:50;;;;;;;14.40;9.80;;;;;;;12.18;88.21;99095.12;106101;1254;71143;-76
2023/04/06 08:13:19;;;;;;;13.50;9.90;;;;;;;12.21;88.74;99096.37;106417;1252;71804;-76
2023/04/06 08:15:54;;;;;;;15.60;9.90;;;;;;;12.26;88.41;99094.27;108843;1253;60156;-78
2023/04/06 08:18:32;;;;;;;12.10;8.70;;;;;;;12.30;87.80;99095.48;108081;1256;59196;-78
2023/04/06 08:21:01;;;;;;;12.80;10.00;;;;;;;12.35;87.88;99094.38;106976;1252;70976;-78
2023/04/06 08:23:29;;;;;;;15.40;9.80;;;;;;;12.42;88.52;99096.80;106400;1253;71126;-79
2023/04/06 08:25:56;;;;;;;19.90;10.40;;;;;;;12.51;88.19;99089.80;106381;1254;71606;-79
2023/04/06 08:28:27;;;;;;;15.70;9.40;;;;;;;12.58;88.52;99092.10;106537;1253;60481;-77
2023/04/06 08:30:55;;;;;;;14.70;9.30;;;;;;;12.65;87.78;99091.77;106231;1257;59494;-79
2023/04/06 08:33:29;;;;;;;14.30;9.30;;;;;;;12.69;88.24;99089.55;106397;1253;73970;-78
2023/04/06 08:36:16;;;;;;;13.90;8.70;;;;;;;12.65;87.93;99085.36;106950;1253;70492;-78
2023/04/06 08:38:53;;;;;;;11.80;9.30;;;;;;;12.65;87.55;99089.70;107248;1256;71563;-80
2023/04/06 08:41:31;;;;;;;14.10;9.80;;;;;;;12.58;87.17;99086.60;107077;1259;60870;-78
2023/04/06 08:44:01;;;;;;;15.10;9.00;;;;;;;12.57;88.00;99084.59;108997;1252;61322;-77
2023/04/06 08:46:32;;;;;;;14.00;9.70;;;;;;;12.57;88.12;99084.58;109291;1253;72173;-78
2023/04/06 08:49:06;;;;;;;15.50;9.40;;;;;;;12.61;87.98;99084.31;108957;1252;69622;-78
2023/04/06 08:51:37;;;;;;;14.70;9.60;;;;;;;12.67;87.75;99083.73;109155;1252;70617;-76
2023/04/06 08:54:09;;;;;;;20.90;9.20;;;;;;;12.71;87.76;99085.27;109241;1253;59026;-78
2023/04/06 08:56:39;;;;;;;16.80;9.80;;;;;;;12.77;87.56;99084.92;109299;1252;60193;-78
2023/04/06 08:59:29;;;;;;;14.20;10.30;;;;;;;12.80;87.69;99083.77;109311;1253;74648;-78
2023/04/06 09:02:22;;;;;;;15.00;10.80;;;;;;;12.84;87.49;99078.77;109372;1252;72121;-78
2023/04/06 09:05:10;;;;;;;15.30;10.40;;;;;;;12.85;87.73;99079.63;109252;1252;71278;-80
2023/04/06 09:07:50;;;;;;;18.50;9.80;;;;;;;12.91;87.79;99075.63;108080;1252;61667;-80
2023/04/06 09:10:24;;;;;;;19.10;10.30;;;;;;;13.01;87.73;99081.09;108790;1253;59336;-78
2023/04/06 09:13:07;;;;;;;19.50;11.20;;;;;;;13.02;87.01;99088.17;109372;1251;72134;-77
2023/04/06 09:15:37;;;;;;;12.60;9.60;;;;;;;12.99;86.53;99089.33;108816;1251;69954;-76
2023/04/06 09:18:10;;;;;;;16.50;10.20;;;;;;;12.95;86.43;99094.02;108867;1251;72560;-80
2023/04/06 09:20:41;;;;;;;16.70;10.80;;;;;;;12.89;86.41;99091.26;108760;1252;59011;-77
2023/04/06 09:23:19;;;;;;;16.20;10.80;;;;;;;12.84;87.47;99095.61;108182;1251;61140;-77
2023/04/06 09:25:48;;;;;;;19.90;9.80;;;;;;;12.74;88.13;99095.90;108072;1253;72151;-76
2023/04/06 09:28:17;;;;;;;13.70;10.00;;;;;;;12.67;88.36;99094.31;108109;1257;70187;-78
2023/04/06 09:30:50;;;;;;;18.30;11.20;;;;;;;12.63;88.23;99096.98;108641;1251;73506;-77
2023/04/06 09:33:24;;;;;;;14.80;11.10;;;;;;;12.61;88.15;99098.37;108488;1251;60499;-80
2023/04/06 09:35:55;;;;;;;14.40;11.60;;;;;;;12.57;88.94;99093.31;108640;1251;60190;-76
2023/04/06 09:38:24;;;;;;;14.40;11.90;;;;;;;12.52;88.86;99093.20;108279;1251;72141;-80
2023/04/06 09:40:53;;;;;;;17.90;13.90;;;;;;;12.49;88.64;99104.00;108774;1251;69025;-80
2023/04/06 09:43:33;;;;;;;18.80;12.30;;;;;;;12.40;89.24;99107.43;108306;1251;71838;-79
2023/04/06 09:46:03;;;;;;;15.30;10.20;;;;;;;12.34;89.70;99121.46;107821;1253;61872;-76
2023/04/06 09:48:31;;;;;;;13.20;9.00;;;;;;;12.27;91.16;99121.94;108168;1253;59454;-78
2023/04/06 09:51:05;;;;;;;10.20;7.80;;;;;;;12.18;92.98;99129.61;108872;1251;73829;-76
2023/04/06 09:53:35;;;;;;;10.60;7.70;;;;;;;12.08;93.92;99131.39;108502;1251;68725;-72
2023/04/06 09:56:04;;;;;;;17.10;8.60;;;;;;;11.99;94.49;99134.54;108032;1251;73650;-74
2023/04/06 09:58:35;;;;;;;16.00;8.60;;;;;;;11.91;95.11;99134.10;107797;1252;61412;-75
2023/04/06 10:01:13;;;;;;;10.40;7.70;;;;;;;11.82;95.91;99138.59;107674;1253;60492;-73
2023/04/06 10:04:06;;;;;;;11.50;8.20;;;;;;;11.76;96.84;99137.02;107477;1251;73591;-75
2023/04/06 10:06:40;;;;;;;8.70;7.30;;;;;;;11.61;97.76;99132.29;106082;1253;70511;-74
2023/04/06 10:09:09;;;;;;;11.70;8.10;;;;;;;11.52;98.28;99133.99;105827;1255;73113;-77
2023/04/06 10:11:37;;;;;;;17.80;8.20;;;;;;;11.48;98.89;99133.58;106153;1253;60754;-77
2023/04/06 10:14:08;;;;;;;9.40;7.30;;;;;;;11.45;99.37;99139.08;106060;1256;60425;-77
2023/04/06 10:16:37;;;;;;;13.60;8.60;;;;;;;11.40;99.89;99138.25;106197;1256;74106;-75
2023/04/06 10:19:17;;;;;;;11.00;7.70;;;;;;;11.36;100.00;99143.03;106226;1256;69633;-74
2023/04/06 10:21:46;;;;;;;11.10;7.60;;;;;;;11.33;100.00;99143.41;106122;1251;72578;-75
2023/04/06 10:24:18;;;;;;;11.00;8.20;;;;;;;11.29;100.00;99142.30;105857;1251;62018;-75
2023/04/06 10:27:02;;;;;;;12.10;9.40;;;;;;;11.26;100.00;99139.85;105999;1253;60309;-74
2023/04/06 10:29:48;;;;;;;13.00;9.90;;;;;;;11.22;100.00;99142.10;105876;1252;73769;-73
2023/04/06 10:32:17;;;;;;;14.30;11.90;;;;;;;11.18;100.00;99155.14;105958;1251;70143;-77
2023/04/06 10:34:46;;;;;;;16.90;12.60;;;;;;;11.12;100.00;99153.19;106450;1251;73602;-76
2023/04/06 10:37:20;;;;;;;13.30;10.70;;;;;;;11.05;100.00;99156.73;106011;1252;62146;-75
2023/04/06 10:39:57;;;;;;;12.90;9.20;;;;;;;10.97;100.00;99164.24;106289;1255;61158;-75
2023/04/06 10:42:46;;;;;;;8.70;6.80;;;;;;;10.92;100.00;99168.09;105857;1253;73704;-73
2023/04/06 10:45:21;;;;;;;9.30;7.80;;;;;;;10.84;100.00;99168.07;106018;1253;71468;-75
2023/04/06 10:47:56;;;;;;;10.60;7.50;;;;;;;10.76;100.00;99169.73;105814;1257;74580;-73
2023/04/06 10:50:23;;;;;;;8.00;7.20;;;;;;;10.71;100.00;99174.61;105821;1260;60706;-73
2023/04/06 10:53:02;;;;;;;8.20;7.40;;;;;;;10.65;100.00;99177.63;106041;1251;60107;-74
2023/04/06 10:55:30;;;;;;;9.20;8.30;;;;;;;10.64;100.00;99173.11;106264;1253;72646;-72
2023/04/06 10:57:59;;;;;;;11.90;8.60;;;;;;;10.67;100.00;99175.31;105871;1260;70440;-76
2023/04/06 11:00:28;;;;;;;9.50;8.60;;;;;;;10.64;100.00;99176.61;106061;1257;72663;-71
2023/04/06 11:03:10;;;;;;;10.30;8.40;;;;;;;10.70;100.00;99185.02;106135;1251;60431;-73
2023/04/06 11:05:38;;;;;;;12.30;8.50;;;;;;;10.70;100.00;99187.60;106210;1253;61258;-74
2023/04/06 11:08:08;;;;;;;10.90;9.40;;;;;;;10.71;100.00;99182.41;106180;1258;73874;-73
2023/04/06 11:10:36;;;;;;;12.80;9.20;;;;;;;10.71;100.00;99189.44;106237;1251;71559;-75
2023/04/06 11:13:05;;;;;;;11.70;9.50;;;;;;;10.72;100.00;99187.37;106704;1253;72575;-73
2023/04/06 11:15:36;;;;;;;12.30;9.40;;;;;;;10.73;100.00;99189.35;107175;1251;61207;-71
2023/04/06 11:18:07;;;;;;;13.20;9.90;;;;;;;10.77;100.00;99189.86;106188;1253;60399;-74
2023/04/06 11:20:37;;;;;;;11.00;9.80;;;;;;;10.83;100.00;99195.27;106237;1253;73526;-72
2023/04/06 11:23:06;;;;;;;10.10;8.60;;;;;;;10.91;100.00;99202.10;106158;1253;70613;-76
2023/04/06 11:25:35;;;;;;;12.20;8.50;;;;;;;10.94;100.00;99203.55;106061;1252;72858;-75
2023/04/06 11:28:09;;;;;;;12.60;9.50;;;;;;;10.96;100.00;99206.84;105987;1259;60453;-74
2023/04/06 11:30:39;;;;;;;9.30;8.40;;;;;;;10.96;100.00;99207.86;105913;1259;60514;-75
2023/04/06 11:33:08;;;;;;;12.00;9.60;;;;;;;10.98;100.00;99210.14;106114;1253;74879;-76